Time;durP1;ratioP1;P1;durP2;ratioP2;P2;SDS_P1;SDS_P2;PMS_P1;PMS_P2;Temp;Humidity;BMP_temperature;BMP_pressure;BME280_temperature;BME280_humidity;BME280_pressure;Samples;Min_cycle;Max_cycle;Signal;HPM_P1;HPM_P2
2022/10/26 00:02:12;;;;;;;8.37;5.20;;;8.90;99.90;;;;;;5108197;28;20229;-85
2022/10/26 00:04:39;;;;;;;10.03;5.60;;;8.80;99.90;;;;;;5097672;28;20243;-85
2022/10/26 00:07:06;;;;;;;9.30;5.27;;;8.90;99.90;;;;;;5098058;28;20205;-86
2022/10/26 00:09:35;;;;;;;12.33;5.53;;;8.90;99.90;;;;;;5098428;28;20288;-85
2022/10/26 00:12:02;;;;;;;5.97;5.03;;;8.70;99.90;;;;;;5098506;28;20202;-86
2022/10/26 00:14:29;;;;;;;7.43;5.00;;;8.60;99.90;;;;;;5097828;28;20248;-85
2022/10/26 00:16:56;;;;;;;7.23;5.10;;;8.60;99.90;;;;;;5100641;28;20288;-86
2022/10/26 00:19:23;;;;;;;8.80;4.90;;;8.80;99.90;;;;;;5115788;28;20649;-87
2022/10/26 00:21:51;;;;;;;6.53;4.43;;;8.60;99.90;;;;;;5118689;28;20224;-85
2022/10/26 00:24:18;;;;;;;7.20;4.90;;;8.60;99.90;;;;;;5115249;28;20619;-85
2022/10/26 00:26:47;;;;;;;8.13;4.70;;;8.70;99.90;;;;;;5117783;28;20217;-85
2022/10/26 00:29:14;;;;;;;8.17;5.63;;;8.50;99.90;;;;;;5119200;28;20225;-85
2022/10/26 00:31:41;;;;;;;8.43;5.53;;;8.40;99.90;;;;;;5111005;28;20230;-85
2022/10/26 00:34:11;;;;;;;7.73;4.83;;;7.90;99.90;;;;;;5119922;28;20272;-87
2022/10/26 00:36:38;;;;;;;6.03;4.67;;;8.20;99.90;;;;;;5119721;28;20664;-85
2022/10/26 00:39:05;;;;;;;10.60;6.40;;;8.20;99.90;;;;;;5109608;28;20285;-86
2022/10/26 00:41:34;;;;;;;8.07;5.70;;;8.40;99.90;;;;;;5100088;28;20618;-84
2022/10/26 00:44:40;;;;;;;10.77;6.20;;;8.20;99.90;;;;;;5103309;28;20679;-85
2022/10/26 00:47:10;;;;;;;9.73;5.80;;;8.40;99.90;;;;;;5102073;28;20227;-85
2022/10/26 00:49:37;;;;;;;9.60;5.37;;;8.40;99.90;;;;;;5102312;28;20289;-85
2022/10/26 00:52:05;;;;;;;8.63;5.40;;;8.40;99.90;;;;;;5102548;28;20264;-85
2022/10/26 00:54:35;;;;;;;10.03;5.50;;;8.30;99.90;;;;;;5102753;28;20194;-85
2022/10/26 00:57:02;;;;;;;7.33;4.90;;;8.30;99.90;;;;;;5111641;28;20305;-85
2022/10/26 00:59:31;;;;;;;11.37;5.63;;;8.40;99.90;;;;;;5102107;28;20226;-85
2022/10/26 01:01:58;;;;;;;11.30;5.33;;;8.50;99.90;;;;;;5119645;28;20616;-85
2022/10/26 01:04:26;;;;;;;9.13;5.30;;;8.60;99.90;;;;;;5121665;28;20612;-86
2022/10/26 01:06:53;;;;;;;7.10;5.00;;;8.40;99.90;;;;;;5121879;28;20229;-87
2022/10/26 01:09:21;;;;;;;6.77;4.90;;;8.20;99.90;;;;;;5105735;28;20256;-85
2022/10/26 01:11:48;;;;;;;13.73;6.40;;;8.30;99.90;;;;;;5100530;28;20198;-86
2022/10/26 01:14:18;;;;;;;7.43;5.33;;;8.30;99.90;;;;;;5115859;28;20268;-85
2022/10/26 01:16:57;;;;;;;11.00;5.30;;;8.30;99.90;;;;;;5122454;28;20277;-85
2022/10/26 01:20:03;;;;;;;7.43;4.90;;;8.30;99.90;;;;;;5122315;28;20621;-85
2022/10/26 01:22:37;;;;;;;9.07;5.33;;;8.40;99.90;;;;;;5102151;28;20197;-86
2022/10/26 01:25:13;;;;;;;9.13;5.33;;;8.30;99.90;;;;;;5101469;28;20229;-86
2022/10/26 01:27:42;;;;;;;9.60;6.00;;;8.50;99.90;;;;;;5105375;28;20193;-85
2022/10/26 01:30:20;;;;;;;8.13;5.33;;;8.60;99.90;;;;;;5121648;28;20683;-85
2022/10/26 01:33:13;;;;;;;8.37;5.40;;;8.60;99.90;;;;;;5123158;28;20223;-85
2022/10/26 01:35:46;;;;;;;9.63;5.10;;;8.50;99.90;;;;;;5116939;28;20622;-85
2022/10/26 01:38:22;;;;;;;6.13;4.30;;;8.30;99.90;;;;;;5101319;28;20198;-85
2022/10/26 01:40:59;;;;;;;8.27;5.20;;;7.90;99.90;;;;;;5116149;28;20236;-84
2022/10/26 01:43:31;;;;;;;11.07;5.53;;;7.90;99.90;;;;;;5122083;28;20200;-85
2022/10/26 01:46:01;;;;;;;8.80;5.50;;;8.00;99.90;;;;;;5122280;28;20217;-85
2022/10/26 01:48:29;;;;;;;8.10;4.97;;;8.20;99.90;;;;;;5121590;28;20201;-86
2022/10/26 01:50:58;;;;;;;8.53;4.93;;;8.20;99.90;;;;;;5110123;28;20201;-86
2022/10/26 01:53:27;;;;;;;7.37;5.17;;;8.30;99.90;;;;;;5117856;28;20197;-85
2022/10/26 01:55:56;;;;;;;8.67;5.30;;;8.40;99.90;;;;;;5121234;28;20297;-86
2022/10/26 01:58:50;;;;;;;7.83;5.03;;;8.10;99.90;;;;;;5116190;28;20237;-85
2022/10/26 02:01:41;;;;;;;6.73;4.37;;;8.10;99.90;;;;;;5101472;28;20201;-85
2022/10/26 02:04:19;;;;;;;10.47;5.70;;;8.30;99.90;;;;;;5116896;28;20205;-85
2022/10/26 02:06:56;;;;;;;8.70;4.90;;;8.30;99.90;;;;;;5113408;28;20283;-86
2022/10/26 02:09:30;;;;;;;8.33;5.53;;;8.40;99.90;;;;;;5104567;28;20209;-86
2022/10/26 02:11:58;;;;;;;7.67;4.60;;;8.30;99.90;;;;;;5101384;28;20631;-85
2022/10/26 02:14:32;;;;;;;9.10;4.53;;;8.30;99.90;;;;;;5111097;28;20220;-85
2022/10/26 02:17:08;;;;;;;7.73;4.60;;;8.30;99.90;;;;;;5121038;28;20687;-85
2022/10/26 02:19:42;;;;;;;7.93;5.10;;;8.40;99.90;;;;;;5121212;28;20703;-85
2022/10/26 02:22:16;;;;;;;9.03;4.70;;;8.40;99.90;;;;;;5121055;28;20221;-85
2022/10/26 02:24:44;;;;;;;6.90;4.90;;;8.30;99.90;;;;;;5116954;28;20677;-85
2022/10/26 02:27:16;;;;;;;5.73;4.60;;;8.30;99.90;;;;;;5101896;28;20228;-85
2022/10/26 02:29:45;;;;;;;9.17;4.47;;;8.40;99.90;;;;;;5100244;28;20317;-85
2022/10/26 02:32:14;;;;;;;7.97;5.37;;;8.40;99.90;;;;;;5108734;28;20248;-85
2022/10/26 02:34:45;;;;;;;9.73;4.83;;;8.40;99.90;;;;;;5113940;28;20201;-85
2022/10/26 02:37:15;;;;;;;6.10;4.40;;;8.40;99.90;;;;;;5101113;28;20221;-86
2022/10/26 02:39:44;;;;;;;7.87;4.97;;;8.60;99.90;;;;;;5115818;27;20281;-85
2022/10/26 02:42:14;;;;;;;5.77;4.40;;;8.50;99.90;;;;;;5107289;28;20201;-86
2022/10/26 02:44:46;;;;;;;6.93;4.07;;;8.40;99.90;;;;;;5120677;28;20201;-85
2022/10/26 02:47:15;;;;;;;8.67;4.57;;;8.40;99.90;;;;;;5112052;28;20242;-86
2022/10/26 02:49:42;;;;;;;6.60;3.83;;;8.60;99.90;;;;;;5118514;28;20221;-86
2022/10/26 02:52:16;;;;;;;6.37;4.43;;;8.60;99.90;;;;;;5119017;28;20284;-85
2022/10/26 02:54:51;;;;;;;8.23;4.37;;;8.60;99.90;;;;;;5118947;28;20233;-86
2022/10/26 02:57:23;;;;;;;6.23;3.97;;;8.60;99.90;;;;;;5108412;28;20201;-85
2022/10/26 02:59:52;;;;;;;6.47;4.00;;;8.60;99.90;;;;;;5101605;27;20328;-86
2022/10/26 03:02:22;;;;;;;8.30;4.87;;;8.70;99.90;;;;;;5098239;28;20232;-85
2022/10/26 03:04:50;;;;;;;5.23;4.20;;;8.70;99.90;;;;;;5117308;28;20620;-85
2022/10/26 03:07:21;;;;;;;7.50;4.13;;;8.80;99.90;;;;;;5118328;28;20196;-85
2022/10/26 03:09:48;;;;;;;6.57;4.17;;;8.60;99.90;;;;;;5109660;28;20214;-85
2022/10/26 03:12:15;;;;;;;6.33;3.93;;;8.60;99.90;;;;;;5098155;28;20200;-85
2022/10/26 03:14:42;;;;;;;7.30;3.87;;;8.70;99.90;;;;;;5119215;28;20261;-87
2022/10/26 03:17:09;;;;;;;6.40;3.90;;;8.70;99.90;;;;;;5117562;28;20270;-85
2022/10/26 03:19:37;;;;;;;4.63;3.60;;;8.60;99.90;;;;;;5120491;28;20723;-85
2022/10/26 03:22:04;;;;;;;5.47;3.90;;;8.80;99.90;;;;;;5119230;28;20204;-84
2022/10/26 03:24:31;;;;;;;6.17;4.00;;;8.80;99.90;;;;;;5120234;28;20193;-88
2022/10/26 03:26:58;;;;;;;6.17;4.53;;;8.70;99.90;;;;;;5119511;28;20189;-85
2022/10/26 03:29:24;;;;;;;7.33;4.67;;;8.90;99.90;;;;;;5118227;28;20280;-87
2022/10/26 03:31:53;;;;;;;7.93;4.40;;;8.80;99.90;;;;;;5119735;28;20260;-86
2022/10/26 03:34:20;;;;;;;6.03;4.53;;;8.90;99.90;;;;;;5118141;27;20207;-85
2022/10/26 03:36:49;;;;;;;7.67;4.50;;;9.00;99.90;;;;;;5118544;28;20279;-85
2022/10/26 03:39:15;;;;;;;8.40;4.57;;;8.90;99.90;;;;;;5119553;28;20595;-85
2022/10/26 03:41:43;;;;;;;8.30;4.37;;;8.80;99.90;;;;;;5120231;28;20196;-86
2022/10/26 03:44:10;;;;;;;6.13;4.40;;;8.80;99.90;;;;;;5119414;28;20216;-85
2022/10/26 03:46:36;;;;;;;7.97;4.60;;;8.80;99.90;;;;;;5119224;28;20208;-86
2022/10/26 03:49:03;;;;;;;6.00;4.20;;;8.80;99.90;;;;;;5119362;28;20235;-85
2022/10/26 03:51:30;;;;;;;8.50;5.03;;;8.70;99.90;;;;;;5117408;28;20215;-86
2022/10/26 03:53:59;;;;;;;7.53;4.50;;;8.60;99.90;;;;;;5119082;28;20295;-85
2022/10/26 03:56:25;;;;;;;9.03;5.00;;;8.60;99.90;;;;;;5118635;28;20223;-85
2022/10/26 03:58:52;;;;;;;8.17;4.70;;;8.70;99.90;;;;;;5119540;28;20209;-85
2022/10/26 04:01:19;;;;;;;9.60;5.07;;;8.70;99.90;;;;;;5117448;28;20235;-85
2022/10/26 04:03:46;;;;;;;11.97;4.87;;;8.70;99.90;;;;;;5119290;28;20208;-85
2022/10/26 04:06:13;;;;;;;9.07;4.87;;;8.70;99.90;;;;;;5117571;28;20209;-85
2022/10/26 04:08:39;;;;;;;8.00;5.03;;;8.80;99.90;;;;;;5117400;28;20205;-85
2022/10/26 04:11:08;;;;;;;7.77;5.20;;;8.90;99.90;;;;;;5118703;28;20189;-85
2022/10/26 04:13:35;;;;;;;7.77;4.77;;;8.80;99.90;;;;;;5118020;28;20652;-85
2022/10/26 04:16:01;;;;;;;7.90;5.00;;;8.70;99.90;;;;;;5117633;28;20220;-88
2022/10/26 04:18:28;;;;;;;9.30;5.17;;;8.80;99.90;;;;;;5121134;28;20200;-86
2022/10/26 04:20:56;;;;;;;6.33;4.50;;;8.70;99.90;;;;;;5120622;28;20201;-86
2022/10/26 04:23:23;;;;;;;10.57;6.93;;;8.70;99.90;;;;;;5122130;28;20195;-85
2022/10/26 04:25:50;;;;;;;11.33;5.70;;;8.80;99.90;;;;;;5112128;28;20199;-86
2022/10/26 04:28:18;;;;;;;8.77;5.03;;;8.90;99.90;;;;;;5118838;28;20672;-85
2022/10/26 04:30:45;;;;;;;10.47;5.10;;;8.90;99.90;;;;;;5120805;28;20212;-86
2022/10/26 04:33:11;;;;;;;7.73;5.00;;;8.90;99.90;;;;;;5120240;28;20235;-85
2022/10/26 04:35:38;;;;;;;7.83;4.63;;;8.90;99.90;;;;;;5120702;28;20205;-85
2022/10/26 04:38:06;;;;;;;8.77;5.30;;;8.90;99.90;;;;;;5119250;28;20328;-85
2022/10/26 04:40:34;;;;;;;9.53;4.60;;;8.80;99.90;;;;;;5119015;28;20635;-85
2022/10/26 04:43:01;;;;;;;8.40;4.90;;;8.70;99.90;;;;;;5118105;28;20676;-89
2022/10/26 04:45:30;;;;;;;6.10;4.63;;;8.60;99.90;;;;;;5120123;28;20676;-85
2022/10/26 04:48:02;;;;;;;9.40;4.67;;;8.60;99.90;;;;;;5119467;28;20204;-85
2022/10/26 04:50:28;;;;;;;7.90;4.77;;;8.60;99.90;;;;;;5119465;28;20315;-85
2022/10/26 04:52:55;;;;;;;11.17;4.20;;;8.50;99.90;;;;;;5119503;28;20259;-85
2022/10/26 04:55:22;;;;;;;9.57;4.43;;;8.50;99.90;;;;;;5120179;28;20555;-86
2022/10/26 04:57:49;;;;;;;8.60;4.40;;;8.50;99.90;;;;;;5119911;28;20225;-85
2022/10/26 05:00:16;;;;;;;9.13;4.67;;;8.60;99.90;;;;;;5119827;28;20235;-86
2022/10/26 05:02:44;;;;;;;6.90;4.67;;;8.60;99.90;;;;;;5119911;28;20213;-85
2022/10/26 05:05:11;;;;;;;6.53;4.17;;;8.60;99.90;;;;;;5119921;28;20213;-85
2022/10/26 05:07:38;;;;;;;6.53;4.60;;;8.50;99.90;;;;;;5119216;28;20201;-85
2022/10/26 05:10:05;;;;;;;6.73;4.17;;;8.50;99.90;;;;;;5117681;28;20235;-86
2022/10/26 05:12:32;;;;;;;6.73;4.20;;;8.40;99.90;;;;;;5119507;28;20228;-85
2022/10/26 05:14:59;;;;;;;6.47;4.23;;;8.50;99.90;;;;;;5119679;28;20194;-85
2022/10/26 05:17:26;;;;;;;6.10;4.20;;;8.40;99.90;;;;;;5119002;28;20213;-85
2022/10/26 05:19:57;;;;;;;8.47;4.17;;;8.30;99.90;;;;;;5119293;28;20224;-86
2022/10/26 05:22:23;;;;;;;4.87;3.70;;;8.20;99.90;;;;;;5119777;28;20212;-87
2022/10/26 05:24:50;;;;;;;8.47;4.97;;;8.20;99.90;;;;;;5119722;28;20713;-86
2022/10/26 05:27:17;;;;;;;7.93;4.73;;;8.30;99.90;;;;;;5119338;28;20592;-85
2022/10/26 05:29:44;;;;;;;6.63;4.40;;;8.10;99.90;;;;;;5118590;28;20217;-86
2022/10/26 05:32:11;;;;;;;7.37;3.87;;;8.10;99.90;;;;;;5117660;28;20197;-85
2022/10/26 05:34:37;;;;;;;8.53;4.57;;;8.10;99.90;;;;;;5119120;28;20201;-85
2022/10/26 05:37:06;;;;;;;9.47;5.00;;;8.10;99.90;;;;;;5118071;28;20217;-85
2022/10/26 05:39:32;;;;;;;10.57;6.60;;;8.20;99.90;;;;;;5120323;28;20277;-87
2022/10/26 05:41:59;;;;;;;10.03;6.20;;;8.10;99.90;;;;;;5119023;28;20714;-85
2022/10/26 05:44:26;;;;;;;10.17;6.27;;;8.20;99.90;;;;;;5119479;28;20250;-85
2022/10/26 05:46:53;;;;;;;11.17;7.23;;;8.30;99.90;;;;;;5118633;28;20574;-85
2022/10/26 05:49:20;;;;;;;9.77;5.60;;;8.50;99.90;;;;;;5119999;28;20251;-85
2022/10/26 05:51:46;;;;;;;7.70;5.57;;;8.50;99.90;;;;;;5119344;28;20207;-87
2022/10/26 05:54:15;;;;;;;9.10;5.80;;;8.50;99.90;;;;;;5119920;28;20201;-86
2022/10/26 05:56:42;;;;;;;7.60;4.70;;;8.50;99.90;;;;;;5118592;28;20227;-85
2022/10/26 05:59:14;;;;;;;8.93;5.33;;;8.50;99.90;;;;;;5118773;28;20209;-87
2022/10/26 06:01:54;;;;;;;8.70;5.60;;;8.50;99.90;;;;;;5119420;28;20667;-85
2022/10/26 06:04:30;;;;;;;10.00;5.00;;;8.50;99.90;;;;;;5120040;28;20234;-85
2022/10/26 06:06:58;;;;;;;5.47;4.67;;;8.60;99.90;;;;;;5118103;28;20208;-85
2022/10/26 06:09:27;;;;;;;8.43;5.57;;;8.80;99.90;;;;;;5118426;28;20225;-86
2022/10/26 06:11:55;;;;;;;12.43;7.10;;;8.70;99.90;;;;;;5118430;28;20213;-85
2022/10/26 06:14:22;;;;;;;8.57;7.27;;;8.70;99.90;;;;;;5119061;28;20291;-85
2022/10/26 06:17:05;;;;;;;11.33;7.50;;;8.70;99.90;;;;;;5118896;28;20216;-85
2022/10/26 06:19:47;;;;;;;8.47;7.03;;;8.60;99.90;;;;;;5119492;28;20216;-86
2022/10/26 06:22:27;;;;;;;10.67;8.00;;;8.50;99.90;;;;;;5119721;28;20688;-85
2022/10/26 06:25:04;;;;;;;11.83;8.10;;;8.40;99.90;;;;;;5098368;28;20241;-85
2022/10/26 06:27:41;;;;;;;10.53;6.23;;;8.90;99.90;;;;;;5098811;28;20197;-85
2022/10/26 06:30:10;;;;;;;5.57;4.20;;;9.20;99.90;;;;;;5118725;28;20231;-85
2022/10/26 06:32:38;;;;;;;8.97;5.20;;;9.20;99.90;;;;;;5119048;28;20584;-86
2022/10/26 06:35:21;;;;;;;9.87;6.10;;;9.00;99.90;;;;;;5119689;28;20231;-87
2022/10/26 06:37:49;;;;;;;7.13;5.40;;;9.00;99.90;;;;;;5118255;28;20227;-85
2022/10/26 06:40:18;;;;;;;9.53;4.03;;;9.00;99.90;;;;;;5117207;28;20223;-86
2022/10/26 06:42:46;;;;;;;9.40;3.67;;;9.20;99.90;;;;;;5116983;28;20211;-85
2022/10/26 06:45:14;;;;;;;4.73;3.50;;;9.10;99.90;;;;;;5118698;28;20291;-86
2022/10/26 06:47:46;;;;;;;7.10;3.63;;;8.80;99.90;;;;;;5116399;28;20311;-85
2022/10/26 06:50:27;;;;;;;7.30;3.60;;;8.60;99.90;;;;;;5117147;28;20725;-86
2022/10/26 06:53:04;;;;;;;8.33;3.77;;;8.60;99.90;;;;;;5116773;28;20205;-87
2022/10/26 06:55:40;;;;;;;5.23;3.80;;;8.90;99.90;;;;;;5115472;28;20289;-86
2022/10/26 06:58:10;;;;;;;7.47;4.13;;;9.00;99.90;;;;;;5117936;28;20240;-86
2022/10/26 07:00:39;;;;;;;4.93;3.60;;;9.30;99.90;;;;;;5117257;28;20586;-86
2022/10/26 07:03:06;;;;;;;4.87;4.37;;;9.20;99.90;;;;;;5116153;28;20721;-86
2022/10/26 07:05:33;;;;;;;7.30;5.33;;;9.40;99.90;;;;;;5117719;28;20675;-88
2022/10/26 07:08:00;;;;;;;8.57;5.40;;;9.50;99.90;;;;;;5118165;28;20201;-87
2022/10/26 07:10:27;;;;;;;14.23;5.57;;;9.50;99.90;;;;;;5117392;28;20655;-87
2022/10/26 07:12:55;;;;;;;9.07;5.13;;;9.60;99.90;;;;;;5116487;28;20207;-86
2022/10/26 07:15:22;;;;;;;9.93;5.23;;;9.70;99.90;;;;;;5117914;28;20211;-85
2022/10/26 07:17:49;;;;;;;11.73;5.23;;;9.70;99.90;;;;;;5116719;28;20643;-85
2022/10/26 07:20:18;;;;;;;7.03;4.50;;;9.80;99.90;;;;;;5116640;28;20225;-86
2022/10/26 07:22:45;;;;;;;7.77;5.13;;;10.00;99.90;;;;;;5117482;28;20628;-85
2022/10/26 07:25:12;;;;;;;8.30;5.00;;;10.40;99.90;;;;;;5117316;28;20201;-85
2022/10/26 07:27:39;;;;;;;9.73;5.37;;;11.30;99.90;;;;;;5117237;28;20225;-86
2022/10/26 07:30:08;;;;;;;7.37;4.97;;;12.40;99.90;;;;;;5117349;28;20225;-85
2022/10/26 07:32:35;;;;;;;8.23;5.10;;;12.40;99.90;;;;;;5116727;28;20209;-86
2022/10/26 07:35:02;;;;;;;9.90;5.33;;;12.40;99.90;;;;;;5117187;28;20312;-86
2022/10/26 07:37:29;;;;;;;9.77;6.20;;;12.40;99.90;;;;;;5116567;28;20244;-86
2022/10/26 07:39:56;;;;;;;9.03;5.87;;;12.20;99.90;;;;;;5116279;28;20238;-87
2022/10/26 07:42:23;;;;;;;12.90;8.23;;;11.90;99.90;;;;;;5116438;28;20217;-88
2022/10/26 07:44:49;;;;;;;14.60;7.77;;;11.80;99.90;;;;;;5117026;28;20291;-86
2022/10/26 07:47:19;;;;;;;16.13;8.10;;;11.70;99.90;;;;;;5116508;28;20192;-86
2022/10/26 07:49:46;;;;;;;10.10;4.90;;;11.70;99.90;;;;;;5116865;28;20271;-86
2022/10/26 07:52:12;;;;;;;7.43;3.80;;;11.70;99.90;;;;;;5116371;28;20204;-86
2022/10/26 07:54:39;;;;;;;5.80;3.80;;;11.70;99.90;;;;;;5116770;28;20207;-86
2022/10/26 07:57:06;;;;;;;6.77;3.90;;;11.80;99.90;;;;;;5116274;28;20234;-86
2022/10/26 07:59:33;;;;;;;7.13;3.90;;;11.80;99.90;;;;;;5116652;28;20225;-85
2022/10/26 08:02:00;;;;;;;8.03;3.77;;;11.80;99.90;;;;;;5116851;28;20209;-87
2022/10/26 08:04:28;;;;;;;5.97;3.50;;;11.80;99.90;;;;;;5116354;28;20192;-85
2022/10/26 08:06:55;;;;;;;8.27;3.80;;;11.90;99.90;;;;;;5116535;28;20201;-85
2022/10/26 08:09:21;;;;;;;7.20;3.87;;;11.90;99.90;;;;;;5115792;28;20217;-85
2022/10/26 08:11:48;;;;;;;7.43;4.27;;;12.10;99.90;;;;;;5116698;28;20205;-88
2022/10/26 08:14:15;;;;;;;8.10;4.20;;;12.00;99.90;;;;;;5116578;28;20215;-86
2022/10/26 08:16:42;;;;;;;7.63;4.10;;;12.00;99.90;;;;;;5116912;28;20219;-85
2022/10/26 08:19:09;;;;;;;8.13;4.30;;;12.00;99.90;;;;;;5116795;28;20255;-88
2022/10/26 08:21:37;;;;;;;7.83;3.87;;;12.00;99.90;;;;;;5116768;28;20209;-85
2022/10/26 08:24:04;;;;;;;9.40;4.20;;;12.00;99.90;;;;;;5117011;28;20571;-86
2022/10/26 08:26:31;;;;;;;6.73;4.27;;;12.10;99.90;;;;;;5115700;28;20200;-87
2022/10/26 08:28:58;;;;;;;9.43;4.20;;;12.10;99.90;;;;;;5115990;28;20227;-86
2022/10/26 08:31:38;;;;;;;8.57;4.23;;;12.00;99.90;;;;;;5116087;28;20258;-86
2022/10/26 08:34:05;;;;;;;7.90;4.40;;;12.10;99.90;;;;;;5115983;28;20199;-86
2022/10/26 08:36:32;;;;;;;9.07;4.80;;;12.20;99.90;;;;;;5116545;28;20211;-86
2022/10/26 08:39:00;;;;;;;6.37;3.70;;;12.20;99.90;;;;;;5115919;28;20716;-85
2022/10/26 08:41:36;;;;;;;6.93;4.67;;;12.10;99.90;;;;;;5116194;28;20209;-85
2022/10/26 08:44:10;;;;;;;10.13;4.80;;;12.20;99.90;;;;;;5116571;28;20208;-86
2022/10/26 08:46:44;;;;;;;11.20;5.27;;;12.20;99.90;;;;;;5116763;28;20220;-86
2022/10/26 08:49:19;;;;;;;8.83;5.40;;;12.30;99.90;;;;;;5116293;28;20225;-86
2022/10/26 08:51:47;;;;;;;12.13;6.27;;;12.40;99.90;;;;;;5116272;28;20201;-85
2022/10/26 08:54:19;;;;;;;7.20;5.23;;;12.40;99.90;;;;;;5115992;28;20665;-86
2022/10/26 08:56:50;;;;;;;7.33;4.67;;;12.50;99.90;;;;;;5115718;28;20669;-86
2022/10/26 08:59:30;;;;;;;9.10;5.40;;;12.50;99.90;;;;;;5115454;28;20606;-86
2022/10/26 09:01:57;;;;;;;10.47;5.77;;;12.60;99.90;;;;;;5116412;28;20284;-88
2022/10/26 09:04:27;;;;;;;12.80;5.70;;;12.70;99.90;;;;;;5119137;28;20726;-86
2022/10/26 09:07:02;;;;;;;11.67;6.27;;;12.90;99.90;;;;;;5120492;28;20578;-86
2022/10/26 09:09:38;;;;;;;11.63;5.20;;;12.80;99.90;;;;;;5119591;28;20256;-88
2022/10/26 09:12:14;;;;;;;7.87;5.10;;;13.00;99.90;;;;;;5120009;28;20264;-85
2022/10/26 09:14:55;;;;;;;7.70;4.67;;;13.00;99.90;;;;;;5119543;28;20188;-86
2022/10/26 09:17:36;;;;;;;14.47;5.20;;;13.10;99.90;;;;;;5119518;28;20562;-86
2022/10/26 09:20:25;;;;;;;4.87;3.40;;;13.30;99.90;;;;;;5119523;28;20292;-86
2022/10/26 09:22:58;;;;;;;9.20;3.73;;;13.50;99.90;;;;;;5119390;28;20190;-86
2022/10/26 09:25:34;;;;;;;8.00;4.07;;;13.70;99.90;;;;;;5133467;27;20204;-86
2022/10/26 09:28:03;;;;;;;6.53;3.73;;;13.80;99.90;;;;;;5123908;27;20201;-86
2022/10/26 09:30:31;;;;;;;4.40;3.60;;;14.00;99.90;;;;;;5118847;28;20267;-86
2022/10/26 09:33:02;;;;;;;9.23;4.20;;;14.10;99.90;;;;;;5119597;28;20211;-86
2022/10/26 09:35:34;;;;;;;6.20;3.80;;;14.10;99.90;;;;;;5119688;28;20221;-88
2022/10/26 09:38:14;;;;;;;4.50;3.40;;;14.30;99.90;;;;;;5118427;28;20224;-86
2022/10/26 09:40:48;;;;;;;5.77;2.90;;;14.50;99.90;;;;;;5119012;28;20320;-87
2022/10/26 09:43:18;;;;;;;3.83;2.70;;;14.60;99.90;;;;;;5120288;28;20204;-86
2022/10/26 09:45:48;;;;;;;6.77;2.90;;;14.70;99.90;;;;;;5119466;28;20545;-86
2022/10/26 09:48:20;;;;;;;5.43;2.50;;;14.80;99.90;;;;;;5119556;28;20193;-85
2022/10/26 09:50:50;;;;;;;4.47;2.80;;;14.90;99.90;;;;;;5118308;28;20234;-85
2022/10/26 09:53:17;;;;;;;6.30;3.10;;;15.10;99.90;;;;;;5118209;28;20276;-85
2022/10/26 09:55:47;;;;;;;4.07;2.58;;;15.30;99.90;;;;;;5119009;28;20197;-85
2022/10/26 09:58:17;;;;;;;6.20;2.97;;;15.40;99.90;;;;;;5119326;28;20221;-85
2022/10/26 10:00:45;;;;;;;5.25;3.00;;;15.40;99.90;;;;;;5118410;28;20715;-88
2022/10/26 10:03:20;;;;;;;4.63;2.90;;;15.60;99.90;;;;;;5119380;28;20204;-86
2022/10/26 10:05:47;;;;;;;6.43;3.78;;;15.70;99.90;;;;;;5118507;27;20203;-86
2022/10/26 10:08:21;;;;;;;6.75;3.55;;;15.90;99.90;;;;;;5118296;28;20571;-86
2022/10/26 10:10:58;;;;;;;5.93;3.45;;;15.80;99.90;;;;;;5119272;28;20223;-86
2022/10/26 10:13:27;;;;;;;6.28;3.28;;;15.70;99.90;;;;;;5117688;28;20189;-85
2022/10/26 10:15:57;;;;;;;6.15;2.92;;;15.70;99.90;;;;;;5117550;28;20208;-85
2022/10/26 10:18:24;;;;;;;4.38;2.90;;;15.70;99.90;;;;;;5118615;28;20223;-86
2022/10/26 10:20:53;;;;;;;4.05;2.45;;;15.90;99.90;;;;;;5117685;28;20231;-86
2022/10/26 10:23:30;;;;;;;7.03;3.05;;;15.90;99.90;;;;;;5119018;28;20209;-86
2022/10/26 10:26:16;;;;;;;5.25;2.67;;;16.00;99.90;;;;;;5118416;28;20196;-86
2022/10/26 10:28:43;;;;;;;4.43;2.65;;;16.10;99.90;;;;;;5118294;28;20209;-86
2022/10/26 10:31:21;;;;;;;3.97;2.35;;;16.10;99.90;;;;;;5119648;28;20576;-86
2022/10/26 10:33:48;;;;;;;3.90;2.50;;;16.20;99.90;;;;;;5118778;28;20549;-86
2022/10/26 10:36:18;;;;;;;5.22;2.20;;;16.40;99.90;;;;;;5119138;28;20197;-86
2022/10/26 10:38:46;;;;;;;3.80;2.17;;;16.30;99.90;;;;;;5117525;28;20217;-86
2022/10/26 10:41:21;;;;;;;5.25;2.17;;;16.30;99.90;;;;;;5117322;28;20672;-86
2022/10/26 10:43:51;;;;;;;4.07;2.05;;;16.30;99.90;;;;;;5118549;28;20652;-86
2022/10/26 10:46:23;;;;;;;3.60;1.95;;;16.40;99.90;;;;;;5117966;28;20209;-86
2022/10/26 10:48:55;;;;;;;5.30;1.77;;;16.50;99.90;;;;;;5117348;28;20215;-88
2022/10/26 10:51:25;;;;;;;3.22;1.80;;;16.50;99.90;;;;;;5116216;28;20270;-86
2022/10/26 10:53:54;;;;;;;4.05;1.73;;;16.50;99.90;;;;;;5118149;28;20474;-89
2022/10/26 10:56:33;;;;;;;5.93;2.20;;;16.50;99.90;;;;;;5116545;28;20567;-86
2022/10/26 10:59:26;;;;;;;5.53;1.70;;;16.50;99.90;;;;;;5115880;28;20228;-86
2022/10/26 11:02:06;;;;;;;6.80;2.85;;;16.60;99.90;;;;;;5117732;28;20200;-86
2022/10/26 11:04:52;;;;;;;4.80;3.00;;;16.70;99.90;;;;;;5118310;28;20645;-86
2022/10/26 11:07:21;;;;;;;2.38;1.95;;;16.70;99.90;;;;;;5117278;28;20188;-86
2022/10/26 11:09:50;;;;;;;5.30;2.30;;;16.80;99.90;;;;;;5116951;28;20235;-88
2022/10/26 11:12:23;;;;;;;7.45;2.30;;;16.70;99.90;;;;;;5118242;28;20200;-86
2022/10/26 11:14:56;;;;;;;5.28;2.25;;;17.10;99.90;;;;;;5117379;28;20197;-85
2022/10/26 11:17:27;;;;;;;4.20;1.70;;;17.10;99.90;;;;;;5117344;28;20208;-86
2022/10/26 11:19:57;;;;;;;3.95;1.70;;;17.10;99.90;;;;;;5116439;28;20573;-86
2022/10/26 11:22:28;;;;;;;3.83;1.60;;;17.40;99.90;;;;;;5117050;28;20193;-86
2022/10/26 11:24:59;;;;;;;5.82;1.80;;;17.50;99.90;;;;;;5118154;28;20555;-86
2022/10/26 11:27:34;;;;;;;1.75;1.50;;;17.70;99.90;;;;;;5118228;28;20197;-86
2022/10/26 11:30:04;;;;;;;3.95;1.50;;;17.60;99.90;;;;;;5115355;28;20573;-85
2022/10/26 11:32:37;;;;;;;3.80;2.03;;;17.70;99.90;;;;;;5119257;28;20264;-86
2022/10/26 11:35:14;;;;;;;1.58;1.33;;;17.80;99.90;;;;;;5118409;28;20211;-85
2022/10/26 11:37:48;;;;;;;5.70;2.00;;;17.90;99.90;;;;;;5116252;28;20291;-85
2022/10/26 11:40:27;;;;;;;3.30;1.50;;;18.30;99.90;;;;;;5111269;28;20225;-85
2022/10/26 11:43:03;;;;;;;4.40;1.48;;;18.80;99.90;;;;;;5116579;28;20657;-85
2022/10/26 11:45:34;;;;;;;2.17;1.80;;;19.00;99.90;;;;;;5112446;28;20185;-85
2022/10/26 11:48:06;;;;;;;3.13;2.10;;;19.10;99.90;;;;;;5116174;28;20187;-85
2022/10/26 11:50:37;;;;;;;4.05;1.65;;;19.30;99.90;;;;;;5118112;28;20235;-85
2022/10/26 11:53:12;;;;;;;2.67;1.23;;;19.30;99.90;;;;;;5116707;28;20204;-85
2022/10/26 11:55:40;;;;;;;4.55;1.42;;;19.40;99.90;;;;;;5115976;28;20196;-85
2022/10/26 11:58:11;;;;;;;8.73;2.33;;;19.50;99.90;;;;;;5115607;28;20219;-86
2022/10/26 12:00:47;;;;;;;2.45;1.23;;;19.60;99.90;;;;;;5115881;28;20701;-86
2022/10/26 12:03:17;;;;;;;3.65;1.52;;;20.00;1.00;;;;;;5116311;28;20185;-84
2022/10/26 12:05:48;;;;;;;2.90;1.45;;;20.10;72.60;;;;;;5117793;28;20211;-85
2022/10/26 12:08:22;;;;;;;3.50;1.55;;;20.10;1.00;;;;;;5116716;28;20284;-86
2022/10/26 12:10:52;;;;;;;1.70;1.38;;;20.30;1.00;;;;;;5116430;28;20221;-86
2022/10/26 12:13:26;;;;;;;5.18;3.30;;;21.60;1.00;;;;;;5115766;28;20211;-85
2022/10/26 12:16:00;;;;;;;2.95;1.60;;;22.80;1.00;;;;;;5117121;28;20701;-85
2022/10/26 12:18:34;;;;;;;2.03;1.40;;;23.00;1.00;;;;;;5115500;28;20228;-85
2022/10/26 12:21:04;;;;;;;2.22;1.35;;;22.10;99.90;;;;;;5116693;28;20467;-84
2022/10/26 12:23:34;;;;;;;2.95;0.90;;;21.00;99.90;;;;;;5112705;28;20197;-85
2022/10/26 12:26:34;;;;;;;2.88;1.52;;;20.70;1.00;;;;;;5107398;28;20220;-86
2022/10/26 12:29:38;;;;;;;1.98;1.10;;;21.00;1.00;;;;;;5103920;28;20224;-85
2022/10/26 12:32:47;;;;;;;1.67;1.08;;;20.90;1.00;;;;;;5106108;28;20189;-84
2022/10/26 12:35:37;;;;;;;5.57;1.60;;;21.00;1.00;;;;;;5115546;28;20202;-86
2022/10/26 12:38:47;;;;;;;1.63;1.20;;;20.90;1.00;;;;;;5114208;28;20197;-85
2022/10/26 12:41:23;;;;;;;2.42;2.03;;;20.60;1.00;;;;;;5100362;28;20193;-85
2022/10/26 12:43:49;;;;;;;3.08;1.42;;;20.60;1.00;;;;;;5121181;28;20622;-85
2022/10/26 12:46:42;;;;;;;4.07;1.42;;;22.20;1.00;;;;;;5099867;28;20213;-86
2022/10/26 12:49:48;;;;;;;4.30;1.60;;;23.60;1.00;;;;;;5101596;28;20305;-86
2022/10/26 12:52:33;;;;;;;1.92;1.35;;;24.20;1.00;;;;;;5081610;28;20292;-86
2022/10/26 12:55:50;;;;;;;1.30;1.17;;;24.70;1.00;;;;;;5119460;28;20720;-86
2022/10/26 12:58:57;;;;;;;2.05;1.10;;;24.80;99.90;;;;;;5109073;28;20494;-86
2022/10/26 13:01:44;;;;;;;3.40;1.40;;;25.00;99.90;;;;;;5116414;28;20280;-86
2022/10/26 13:04:46;;;;;;;4.22;1.35;;;22.80;1.00;;;;;;5118500;28;20193;-86
2022/10/26 13:07:24;;;;;;;3.90;1.45;;;21.60;1.00;;;;;;5066056;28;20204;-86
2022/10/26 13:09:58;;;;;;;1.70;1.35;;;21.00;1.00;;;;;;5119884;28;20235;-86
2022/10/26 13:12:26;;;;;;;4.13;1.45;;;20.70;1.00;;;;;;5116927;28;20570;-86
2022/10/26 13:15:01;;;;;;;5.72;1.98;;;20.50;99.90;;;;;;5115992;28;20196;-85
2022/10/26 13:17:31;;;;;;;2.10;1.35;;;20.70;62.10;;;;;;5115931;27;20200;-85